Time;durP1;ratioP1;P1;durP2;ratioP2;P2;SDS_P1;SDS_P2;PMS_P1;PMS_P2;Temp;Humidity;BMP_temperature;BMP_pressure;BME280_temperature;BME280_humidity;BME280_pressure;Samples;Min_cycle;Max_cycle;Signal;HPM_P1;HPM_P2
2022/09/26 00:01:31;;;;;;;5.70;2.90;;;10.80;99.90;;;;;;4774946;29;20043;-66
2022/09/26 00:04:06;;;;;;;5.22;2.60;;;10.80;99.90;;;;;;4774584;29;20388;-66
2022/09/26 00:06:32;;;;;;;6.35;2.70;;;10.80;99.90;;;;;;4788314;29;20066;-66
2022/09/26 00:08:58;;;;;;;5.68;2.40;;;10.80;99.90;;;;;;4803359;29;20130;-66
2022/09/26 00:11:30;;;;;;;5.35;2.85;;;10.80;99.90;;;;;;4791893;29;20046;-66
2022/09/26 00:14:01;;;;;;;2.97;2.50;;;10.80;99.90;;;;;;4807493;29;20440;-66
2022/09/26 00:16:27;;;;;;;5.05;2.30;;;10.80;99.90;;;;;;4788546;29;20053;-66
2022/09/26 00:18:55;;;;;;;3.60;2.50;;;10.80;99.90;;;;;;4811682;29;20082;-65
2022/09/26 00:21:25;;;;;;;5.45;2.47;;;10.90;99.90;;;;;;4814631;29;20085;-66
2022/09/26 00:23:53;;;;;;;3.40;2.40;;;10.90;99.90;;;;;;4806248;29;20103;-66
2022/09/26 00:26:46;;;;;;;3.13;2.30;;;10.90;99.90;;;;;;4821491;29;20050;-66
2022/09/26 00:29:14;;;;;;;2.60;2.38;;;11.20;99.90;;;;;;4808704;29;20053;-66
2022/09/26 00:31:46;;;;;;;7.07;2.70;;;10.80;99.90;;;;;;4791968;29;20094;-66
2022/09/26 00:34:17;;;;;;;3.97;2.80;;;10.80;99.90;;;;;;4813694;29;20078;-66
2022/09/26 00:36:45;;;;;;;5.13;2.75;;;10.90;99.90;;;;;;4810635;29;20221;-66
2022/09/26 00:39:13;;;;;;;2.70;2.20;;;10.90;99.90;;;;;;4807431;29;20047;-65
2022/09/26 00:41:46;;;;;;;3.92;2.40;;;10.90;99.90;;;;;;4808576;29;20057;-66
2022/09/26 00:44:39;;;;;;;3.17;2.38;;;10.90;99.90;;;;;;4808745;29;20071;-66
2022/09/26 00:50:14;;;;;;;4.43;2.30;;;10.90;99.90;;;;;;4798993;29;20048;-66
2022/09/26 00:53:06;;;;;;;5.00;2.60;;;10.90;99.90;;;;;;4797321;29;20137;-66
2022/09/26 00:55:42;;;;;;;3.85;2.17;;;10.90;99.90;;;;;;4783990;29;20384;-66
2022/09/26 00:58:15;;;;;;;3.15;2.20;;;10.90;99.90;;;;;;4791116;29;20129;-66
2022/09/26 01:00:50;;;;;;;5.45;2.30;;;10.90;99.90;;;;;;4819030;29;20050;-66
2022/09/26 01:03:18;;;;;;;4.15;2.22;;;10.90;99.90;;;;;;4780433;29;20070;-66
2022/09/26 01:05:45;;;;;;;4.78;2.45;;;10.80;99.90;;;;;;4787291;29;20058;-66
2022/09/26 01:08:13;;;;;;;4.28;1.95;;;10.90;99.90;;;;;;4802103;29;20037;-66
2022/09/26 01:10:39;;;;;;;3.63;1.83;;;10.90;99.90;;;;;;4778587;29;20077;-66
2022/09/26 01:13:07;;;;;;;3.00;1.98;;;10.90;99.90;;;;;;4791965;29;20086;-66
2022/09/26 01:15:53;;;;;;;3.40;1.83;;;10.90;99.90;;;;;;4808157;29;20424;-66
2022/09/26 01:18:19;;;;;;;3.35;1.90;;;10.90;99.90;;;;;;4815206;29;20062;-66
2022/09/26 01:21:24;;;;;;;3.65;1.88;;;10.80;99.90;;;;;;4825405;29;20391;-66
2022/09/26 01:24:28;;;;;;;2.58;1.73;;;10.80;99.90;;;;;;4808741;29;20062;-66
2022/09/26 01:27:13;;;;;;;5.28;2.13;;;10.80;99.90;;;;;;4809575;29;20050;-66
2022/09/26 01:30:03;;;;;;;5.10;2.03;;;10.80;99.90;;;;;;4809833;29;20035;-66
2022/09/26 01:32:49;;;;;;;4.75;2.17;;;10.80;99.90;;;;;;4822177;29;20454;-66
2022/09/26 01:35:26;;;;;;;4.05;2.38;;;10.80;99.90;;;;;;4807764;29;20422;-66
2022/09/26 01:37:59;;;;;;;3.97;2.38;;;10.80;99.90;;;;;;4820551;29;20082;-66
2022/09/26 01:40:43;;;;;;;4.20;2.08;;;10.70;99.90;;;;;;4777163;29;20043;-66
2022/09/26 01:43:33;;;;;;;3.88;2.47;;;10.80;99.90;;;;;;4794827;29;20073;-66
2022/09/26 01:46:41;;;;;;;6.13;2.80;;;10.80;99.90;;;;;;4794800;29;20042;-66
2022/09/26 01:49:30;;;;;;;3.60;2.40;;;10.80;99.90;;;;;;4794462;29;20046;-66
2022/09/26 01:52:26;;;;;;;3.22;2.63;;;10.80;99.90;;;;;;4812479;29;20062;-66
2022/09/26 01:55:12;;;;;;;6.90;2.97;;;10.80;99.90;;;;;;4775812;29;20107;-66
2022/09/26 01:58:05;;;;;;;4.95;2.95;;;10.90;99.90;;;;;;4791944;29;20086;-66
2022/09/26 02:00:35;;;;;;;5.30;2.92;;;10.90;99.90;;;;;;4800360;29;20078;-66
2022/09/26 02:03:03;;;;;;;9.82;3.45;;;10.90;99.90;;;;;;4802323;29;20107;-66
2022/09/26 02:05:36;;;;;;;10.20;3.63;;;10.90;99.90;;;;;;4809160;29;20088;-66
2022/09/26 02:08:16;;;;;;;6.53;3.38;;;10.90;99.90;;;;;;4796933;29;20055;-66
2022/09/26 02:10:58;;;;;;;5.55;3.28;;;10.90;99.90;;;;;;4807013;29;20380;-66
2022/09/26 02:14:03;;;;;;;5.80;3.30;;;10.90;99.90;;;;;;4786842;29;20055;-66
2022/09/26 02:16:56;;;;;;;7.13;3.28;;;10.80;99.90;;;;;;4784227;29;20077;-65
2022/09/26 02:19:28;;;;;;;6.43;2.95;;;10.80;99.90;;;;;;4807324;29;20045;-66
2022/09/26 02:21:57;;;;;;;5.55;3.13;;;10.80;99.90;;;;;;4806264;29;20055;-66
2022/09/26 02:24:23;;;;;;;4.05;2.88;;;10.80;99.90;;;;;;4797564;29;20397;-66
2022/09/26 02:27:14;;;;;;;3.65;3.08;;;10.90;99.90;;;;;;4806227;29;20047;-66
2022/09/26 02:29:43;;;;;;;6.35;3.40;;;10.90;99.90;;;;;;4807210;29;20132;-66
2022/09/26 02:32:32;;;;;;;6.82;3.08;;;10.90;99.90;;;;;;4790977;29;20050;-66
2022/09/26 02:37:51;;;;;;;7.00;3.47;;;11.00;99.90;;;;;;4794350;29;20046;-66
2022/09/26 02:40:19;;;;;;;6.35;3.40;;;11.00;99.90;;;;;;4790066;29;20043;-66
2022/09/26 02:43:49;;;;;;;7.78;3.90;;;11.00;99.90;;;;;;4793783;29;20046;-66
2022/09/26 02:46:29;;;;;;;6.93;3.30;;;11.00;99.90;;;;;;4806707;29;20049;-66
2022/09/26 02:49:12;;;;;;;5.80;3.53;;;11.00;99.90;;;;;;4796113;29;20129;-66
2022/09/26 02:51:59;;;;;;;4.45;3.35;;;11.00;99.90;;;;;;4806129;29;20109;-66
2022/09/26 02:54:46;;;;;;;5.45;3.63;;;11.00;99.90;;;;;;4805640;29;20050;-66
2022/09/26 02:57:50;;;;;;;5.53;3.63;;;11.00;99.90;;;;;;4798259;29;20043;-66
2022/09/26 03:00:20;;;;;;;6.32;3.55;;;11.00;99.90;;;;;;4810642;29;20511;-66
2022/09/26 03:03:11;;;;;;;6.95;4.10;;;11.00;99.90;;;;;;4796701;29;20511;-66
2022/09/26 03:05:40;;;;;;;6.40;3.75;;;11.00;99.90;;;;;;4817753;29;20109;-66
2022/09/26 03:08:19;;;;;;;6.78;4.13;;;11.00;99.90;;;;;;4821211;29;20039;-66
2022/09/26 03:10:47;;;;;;;8.57;4.45;;;10.90;99.90;;;;;;4808722;29;20058;-66
2022/09/26 03:13:15;;;;;;;7.32;4.18;;;10.90;99.90;;;;;;4804340;29;20047;-65
2022/09/26 03:15:44;;;;;;;7.07;4.20;;;10.90;99.90;;;;;;4789338;29;20543;-66
2022/09/26 03:18:15;;;;;;;7.43;4.35;;;10.90;99.90;;;;;;4807672;29;20047;-66
2022/09/26 03:20:42;;;;;;;8.10;4.45;;;10.90;99.90;;;;;;4789505;29;20135;-66
2022/09/26 03:23:08;;;;;;;9.57;4.88;;;10.90;99.90;;;;;;4788670;29;20058;-66
2022/09/26 03:25:34;;;;;;;4.85;4.35;;;10.90;99.90;;;;;;4806308;29;20438;-66
2022/09/26 03:28:01;;;;;;;7.18;4.55;;;10.90;99.90;;;;;;4819344;29;20046;-66
2022/09/26 03:30:28;;;;;;;6.32;4.30;;;10.90;99.90;;;;;;4789403;29;20054;-66
2022/09/26 03:32:54;;;;;;;5.35;4.57;;;10.80;99.90;;;;;;4805377;29;20133;-66
2022/09/26 03:35:20;;;;;;;5.85;4.10;;;10.80;99.90;;;;;;4806152;29;20126;-65
2022/09/26 03:37:46;;;;;;;7.18;4.20;;;10.80;99.90;;;;;;4792713;29;20440;-66
2022/09/26 03:40:12;;;;;;;6.05;4.50;;;10.80;99.90;;;;;;4788714;29;20059;-65
2022/09/26 03:42:38;;;;;;;9.30;5.20;;;10.80;99.90;;;;;;4815600;29;20095;-65
2022/09/26 03:45:07;;;;;;;6.00;4.60;;;10.80;99.90;;;;;;4806604;29;20050;-65
2022/09/26 03:47:33;;;;;;;8.98;5.25;;;10.80;99.90;;;;;;4811509;29;20086;-65
2022/09/26 03:49:59;;;;;;;6.07;4.53;;;10.80;99.90;;;;;;4824274;29;20093;-66
2022/09/26 03:52:25;;;;;;;6.78;5.30;;;10.80;99.90;;;;;;4823888;29;20074;-65
2022/09/26 03:54:52;;;;;;;5.70;4.90;;;10.80;99.90;;;;;;4807031;29;20046;-65
2022/09/26 03:57:18;;;;;;;8.05;5.05;;;10.80;99.90;;;;;;4816146;29;20095;-66
2022/09/26 03:59:44;;;;;;;7.30;5.30;;;10.80;99.90;;;;;;4817047;29;20081;-66
2022/09/26 04:02:10;;;;;;;6.68;5.40;;;10.80;99.90;;;;;;4809279;29;20051;-66
2022/09/26 04:04:35;;;;;;;7.13;5.78;;;10.80;99.90;;;;;;4809506;29;20154;-65
2022/09/26 04:07:01;;;;;;;6.35;5.25;;;10.70;99.90;;;;;;4809227;29;20046;-66
2022/09/26 04:09:27;;;;;;;7.38;5.22;;;10.80;99.90;;;;;;4808692;29;20112;-66
2022/09/26 04:11:53;;;;;;;6.50;5.22;;;10.70;99.90;;;;;;4792978;29;20133;-66
2022/09/26 04:14:19;;;;;;;6.75;5.40;;;10.70;99.90;;;;;;4814600;29;20134;-65
2022/09/26 04:16:45;;;;;;;8.52;5.88;;;10.70;99.90;;;;;;4810930;29;20058;-66
2022/09/26 04:19:12;;;;;;;10.27;6.40;;;10.80;99.90;;;;;;4827011;29;20479;-66
2022/09/26 04:21:39;;;;;;;7.43;6.40;;;10.70;99.90;;;;;;4827330;29;20050;-65
2022/09/26 04:24:06;;;;;;;8.65;6.72;;;10.70;99.90;;;;;;4810534;29;20054;-65
2022/09/26 04:26:32;;;;;;;10.68;6.25;;;10.70;99.90;;;;;;4827951;29;20455;-65
2022/09/26 04:28:58;;;;;;;7.85;6.72;;;10.70;99.90;;;;;;4795790;29;20156;-65
2022/09/26 04:31:26;;;;;;;8.88;6.57;;;10.70;99.90;;;;;;4816386;29;20050;-65
2022/09/26 04:33:54;;;;;;;7.53;6.10;;;10.70;99.90;;;;;;4810746;29;20057;-66
2022/09/26 04:36:19;;;;;;;8.80;5.95;;;10.70;99.90;;;;;;4820776;29;20128;-65
2022/09/26 04:38:45;;;;;;;9.50;6.28;;;10.70;99.90;;;;;;4822378;29;20090;-65
2022/09/26 04:41:14;;;;;;;8.10;6.45;;;10.60;99.90;;;;;;4808988;29;20043;-65
2022/09/26 04:43:40;;;;;;;9.07;6.55;;;10.60;99.90;;;;;;4808736;29;20077;-66
2022/09/26 04:46:12;;;;;;;8.35;6.68;;;10.60;99.90;;;;;;4793445;29;20050;-65
2022/09/26 04:48:37;;;;;;;9.18;6.82;;;10.60;99.90;;;;;;4808145;29;20104;-65
2022/09/26 04:51:08;;;;;;;11.02;7.13;;;10.60;99.90;;;;;;4799454;29;20051;-65
2022/09/26 04:53:34;;;;;;;9.63;7.45;;;10.60;99.90;;;;;;4821387;29;20129;-66
2022/09/26 04:56:00;;;;;;;10.60;7.68;;;10.60;99.90;;;;;;4811314;29;20050;-66
2022/09/26 04:58:27;;;;;;;10.25;7.22;;;10.60;99.90;;;;;;4811524;29;20448;-66
2022/09/26 05:00:52;;;;;;;8.80;7.68;;;10.50;99.90;;;;;;4826352;29;20503;-66
2022/09/26 05:03:19;;;;;;;10.38;6.97;;;10.60;99.90;;;;;;4797892;29;20055;-66
2022/09/26 05:05:49;;;;;;;9.50;8.02;;;10.60;99.90;;;;;;4792309;29;20054;-65
2022/09/26 05:08:16;;;;;;;9.88;7.90;;;10.60;99.90;;;;;;4776735;29;20770;-66
2022/09/26 05:11:08;;;;;;;8.57;7.43;;;10.60;99.90;;;;;;4797543;29;20042;-65
2022/09/26 05:13:35;;;;;;;11.00;8.43;;;10.60;99.90;;;;;;4792130;29;20507;-65
2022/09/26 05:16:02;;;;;;;12.13;8.38;;;10.60;99.90;;;;;;4808091;29;20043;-66
2022/09/26 05:18:28;;;;;;;11.23;8.07;;;10.60;99.90;;;;;;4808228;29;20035;-65
2022/09/26 05:20:55;;;;;;;12.63;8.40;;;10.60;99.90;;;;;;4808200;29;20105;-64
2022/09/26 05:26:21;;;;;;;10.63;8.25;;;10.60;99.90;;;;;;4808930;29;20047;-66
2022/09/26 05:29:00;;;;;;;9.80;7.78;;;10.60;99.90;;;;;;4805688;29;20369;-67
2022/09/26 05:31:27;;;;;;;11.15;8.02;;;10.60;99.90;;;;;;4816372;29;20384;-66
2022/09/26 05:33:56;;;;;;;12.25;8.25;;;10.60;99.90;;;;;;4813667;29;20107;-67
2022/09/26 05:36:22;;;;;;;9.63;7.65;;;10.60;99.90;;;;;;4838554;29;20066;-67
2022/09/26 05:38:48;;;;;;;9.73;7.93;;;10.60;99.90;;;;;;4815681;29;20047;-67
2022/09/26 05:44:55;;;;;;;8.40;7.13;;;10.60;99.90;;;;;;4800773;29;20050;-67
2022/09/26 05:47:32;;;;;;;9.75;7.32;;;10.50;99.90;;;;;;4797733;29;20490;-67
2022/09/26 05:49:57;;;;;;;10.05;7.13;;;10.50;99.90;;;;;;4804303;29;20052;-66
2022/09/26 05:52:36;;;;;;;10.73;7.55;;;10.50;99.90;;;;;;4816236;29;20388;-67
2022/09/26 05:55:02;;;;;;;11.68;7.13;;;10.50;99.90;;;;;;4807241;29;20042;-67
2022/09/26 05:57:34;;;;;;;10.70;7.63;;;10.50;99.90;;;;;;4791199;29;20056;-66
2022/09/26 06:00:01;;;;;;;9.38;7.53;;;10.50;99.90;;;;;;4814353;29;20065;-66
2022/09/26 06:02:26;;;;;;;10.32;7.25;;;10.50;99.90;;;;;;4807323;29;20046;-66
2022/09/26 06:04:52;;;;;;;10.10;6.82;;;10.50;99.90;;;;;;4791376;29;20404;-67
2022/09/26 06:07:18;;;;;;;11.23;7.03;;;10.50;99.90;;;;;;4791161;29;20089;-66
2022/09/26 06:09:43;;;;;;;9.15;6.20;;;10.50;99.90;;;;;;4807006;29;20070;-67
2022/09/26 06:12:34;;;;;;;10.02;6.70;;;10.50;99.90;;;;;;4791144;29;20054;-67
2022/09/26 06:15:00;;;;;;;8.73;6.63;;;10.50;99.90;;;;;;4807797;29;20059;-66
2022/09/26 06:17:28;;;;;;;9.15;6.40;;;10.50;99.90;;;;;;4791161;29;20468;-67
2022/09/26 06:20:06;;;;;;;8.48;5.95;;;10.50;99.90;;;;;;4821792;29;20050;-66
2022/09/26 06:22:42;;;;;;;7.15;5.90;;;10.50;99.90;;;;;;4796238;29;20117;-67
2022/09/26 06:25:09;;;;;;;7.68;6.18;;;10.50;99.90;;;;;;4790607;29;20074;-66
2022/09/26 06:27:37;;;;;;;9.25;6.20;;;10.50;99.90;;;;;;4818504;29;20042;-67
2022/09/26 06:30:09;;;;;;;7.97;6.05;;;10.50;99.90;;;;;;4806559;29;20034;-67
2022/09/26 06:33:25;;;;;;;7.38;5.45;;;10.50;99.90;;;;;;4807009;29;20042;-67
2022/09/26 06:36:06;;;;;;;8.60;5.63;;;10.50;99.90;;;;;;4790527;29;20050;-67
2022/09/26 06:38:32;;;;;;;8.98;5.68;;;10.70;99.90;;;;;;4789938;29;20050;-67
2022/09/26 06:40:58;;;;;;;9.30;5.50;;;10.50;99.90;;;;;;4790645;29;20474;-67
2022/09/26 06:43:23;;;;;;;7.18;5.13;;;10.50;99.90;;;;;;4806246;29;20130;-66
2022/09/26 06:45:49;;;;;;;6.78;5.53;;;10.50;99.90;;;;;;4790769;29;20047;-67
2022/09/26 06:48:16;;;;;;;6.63;5.38;;;10.50;99.90;;;;;;4790457;29;20058;-67
2022/09/26 06:50:42;;;;;;;7.53;5.00;;;10.60;99.90;;;;;;4790546;29;20058;-66
2022/09/26 06:53:07;;;;;;;5.75;4.53;;;10.60;99.90;;;;;;4795193;29;20062;-67
2022/09/26 06:55:33;;;;;;;6.88;5.15;;;10.60;99.90;;;;;;4826760;29;20090;-66
2022/09/26 06:58:24;;;;;;;9.60;4.93;;;10.60;99.90;;;;;;4819177;29;20042;-67
2022/09/26 07:00:50;;;;;;;7.18;4.63;;;10.60;99.90;;;;;;4789309;29;20050;-67
2022/09/26 07:03:16;;;;;;;8.30;4.70;;;10.60;99.90;;;;;;4789740;29;20049;-67
2022/09/26 07:05:44;;;;;;;4.90;4.32;;;10.60;99.90;;;;;;4805999;29;20483;-67
2022/09/26 07:08:10;;;;;;;7.07;4.35;;;10.60;99.90;;;;;;4786907;29;20051;-67
2022/09/26 07:10:36;;;;;;;7.07;4.32;;;10.60;99.90;;;;;;4789626;29;20046;-67
2022/09/26 07:13:04;;;;;;;7.78;4.10;;;10.60;99.90;;;;;;4788123;29;20059;-66
2022/09/26 07:15:32;;;;;;;6.03;4.00;;;10.60;99.90;;;;;;4790250;29;20065;-66
2022/09/26 07:18:01;;;;;;;6.57;4.65;;;10.50;99.90;;;;;;4804415;29;20043;-67
2022/09/26 07:20:28;;;;;;;6.35;3.97;;;10.50;99.90;;;;;;4806231;29;20079;-67
2022/09/26 07:22:53;;;;;;;5.35;4.30;;;10.50;99.90;;;;;;4805781;29;20074;-66
2022/09/26 07:25:19;;;;;;;4.43;3.70;;;10.50;99.90;;;;;;4786450;29;20477;-67
2022/09/26 07:27:49;;;;;;;5.35;3.83;;;10.50;99.90;;;;;;4795388;29;20057;-66
2022/09/26 07:30:15;;;;;;;6.38;4.47;;;10.50;99.90;;;;;;4804124;29;20039;-67
2022/09/26 07:32:46;;;;;;;5.20;4.03;;;10.50;99.90;;;;;;4805759;29;20043;-67
2022/09/26 07:35:14;;;;;;;5.03;4.22;;;10.40;99.90;;;;;;4804382;29;20485;-67
2022/09/26 07:37:41;;;;;;;4.78;3.97;;;10.40;99.90;;;;;;4767270;30;20039;-67
2022/09/26 07:51:18;;;;;;;6.47;3.80;;;10.50;99.90;;;;;;4805558;29;20051;-67
2022/09/26 07:53:44;;;;;;;5.35;3.97;;;10.50;99.90;;;;;;4787493;29;20062;-66
2022/09/26 07:56:19;;;;;;;9.02;4.28;;;10.50;99.90;;;;;;4771654;30;20047;-66
2022/09/26 07:58:45;;;;;;;5.97;4.68;;;10.50;99.90;;;;;;4775599;29;20098;-66
2022/09/26 08:01:15;;;;;;;7.10;4.15;;;10.50;99.90;;;;;;4805725;29;20077;-67
2022/09/26 08:03:44;;;;;;;4.88;4.35;;;10.50;99.90;;;;;;4790271;29;20104;-67
2022/09/26 08:06:11;;;;;;;5.28;4.13;;;10.60;99.90;;;;;;4812241;29;20120;-67
2022/09/26 08:08:37;;;;;;;5.38;4.60;;;10.60;99.90;;;;;;4788788;29;20508;-66
2022/09/26 08:11:04;;;;;;;7.22;4.07;;;10.60;99.90;;;;;;4815948;29;20035;-66
2022/09/26 08:13:33;;;;;;;5.88;4.10;;;10.70;99.90;;;;;;4807904;29;20041;-67
2022/09/26 08:16:50;;;;;;;5.38;4.75;;;10.80;99.90;;;;;;4782343;29;20396;-66
2022/09/26 08:19:17;;;;;;;8.00;4.32;;;10.70;99.90;;;;;;4791564;29;20070;-66
2022/09/26 08:21:53;;;;;;;6.15;4.43;;;11.20;99.90;;;;;;4812415;29;20042;-67
2022/09/26 08:24:19;;;;;;;8.45;4.72;;;10.80;99.90;;;;;;4798187;29;20556;-67
2022/09/26 08:26:44;;;;;;;5.95;4.28;;;10.90;99.90;;;;;;4814713;29;20038;-67
2022/09/26 08:29:11;;;;;;;6.93;4.32;;;10.90;99.90;;;;;;4812745;29;20078;-67
2022/09/26 08:31:39;;;;;;;5.80;4.05;;;10.90;99.90;;;;;;4805569;29;20366;-67
2022/09/26 08:34:06;;;;;;;5.85;4.45;;;10.90;99.90;;;;;;4805380;29;20050;-67
2022/09/26 08:36:34;;;;;;;5.10;4.20;;;11.00;99.90;;;;;;4810356;29;20125;-67
2022/09/26 08:39:01;;;;;;;5.47;4.10;;;11.00;99.90;;;;;;4815188;29;20122;-67
2022/09/26 08:41:58;;;;;;;7.75;4.10;;;11.10;99.90;;;;;;4805707;29;20054;-67
2022/09/26 08:44:53;;;;;;;6.38;4.40;;;11.10;99.90;;;;;;4805287;29;20133;-67
2022/09/26 08:47:40;;;;;;;4.97;4.25;;;11.10;99.90;;;;;;4811984;29;20054;-67
2022/09/26 08:50:44;;;;;;;5.40;3.95;;;11.10;99.90;;;;;;4810236;29;20065;-68
2022/09/26 08:53:20;;;;;;;6.07;4.45;;;11.20;99.90;;;;;;4823569;29;20136;-67
2022/09/26 08:55:47;;;;;;;5.40;3.75;;;11.20;99.90;;;;;;4808645;29;20043;-67
2022/09/26 08:58:26;;;;;;;5.80;4.10;;;11.30;99.90;;;;;;4808200;29;20062;-66
2022/09/26 09:01:01;;;;;;;6.72;3.72;;;11.40;99.90;;;;;;4796851;29;20372;-68
2022/09/26 09:03:57;;;;;;;6.85;3.60;;;11.40;99.90;;;;;;4783934;29;20101;-65
2022/09/26 09:06:27;;;;;;;8.20;3.67;;;11.40;99.90;;;;;;4816671;29;20486;-66
2022/09/26 09:08:57;;;;;;;8.75;3.80;;;11.50;99.90;;;;;;4816678;29;20107;-66
2022/09/26 09:15:10;;;;;;;4.88;4.03;;;11.60;99.90;;;;;;4798261;29;20039;-66
2022/09/26 09:50:11;;;;;;;6.40;4.43;;;11.80;99.90;;;;;;4798874;29;20074;-66
2022/09/26 09:53:27;;;;;;;6.32;4.13;;;11.90;99.90;;;;;;4807542;29;20092;-65
2022/09/26 09:56:04;;;;;;;7.68;4.13;;;11.80;99.90;;;;;;4806063;29;20050;-66
2022/09/26 09:58:39;;;;;;;6.85;4.18;;;11.90;99.90;;;;;;4786962;29;20050;-67
2022/09/26 10:01:16;;;;;;;5.85;3.92;;;11.80;99.90;;;;;;4804885;29;20049;-66
2022/09/26 10:03:54;;;;;;;7.03;4.13;;;11.80;99.90;;;;;;4804959;29;20046;-65
2022/09/26 10:06:21;;;;;;;6.72;4.10;;;11.80;99.90;;;;;;4797811;29;20055;-66
2022/09/26 10:08:49;;;;;;;6.78;4.45;;;11.80;99.90;;;;;;4790610;29;20153;-65
2022/09/26 10:11:29;;;;;;;6.32;4.03;;;11.80;99.90;;;;;;4793653;29;20042;-66
2022/09/26 10:14:00;;;;;;;7.20;3.95;;;11.80;99.90;;;;;;4788394;29;20059;-66
2022/09/26 10:16:26;;;;;;;7.30;3.97;;;11.80;99.90;;;;;;4803955;29;20054;-66
2022/09/26 10:18:59;;;;;;;5.30;3.95;;;11.90;99.90;;;;;;4805153;29;20124;-66
2022/09/26 10:21:31;;;;;;;7.95;3.90;;;11.90;99.90;;;;;;4790573;29;20053;-65
2022/09/26 10:23:58;;;;;;;5.15;4.15;;;12.00;99.90;;;;;;4790567;29;20360;-66
2022/09/26 10:26:33;;;;;;;7.35;4.28;;;12.00;99.90;;;;;;4807102;29;20095;-66
2022/09/26 10:29:05;;;;;;;6.65;4.03;;;12.10;99.90;;;;;;4807127;29;20078;-66
2022/09/26 10:31:38;;;;;;;7.10;4.30;;;12.10;99.90;;;;;;4806058;29;20072;-66
2022/09/26 10:34:19;;;;;;;4.90;3.92;;;12.10;99.90;;;;;;4790425;29;20059;-65
2022/09/26 10:36:44;;;;;;;5.22;4.07;;;12.10;99.90;;;;;;4795519;29;20089;-66
2022/09/26 10:42:12;;;;;;;8.05;4.28;;;12.10;99.90;;;;;;4804779;29;20733;-66
2022/09/26 10:44:37;;;;;;;6.28;3.90;;;12.10;99.90;;;;;;4806410;29;20077;-66
2022/09/26 10:47:08;;;;;;;6.90;4.20;;;12.10;99.90;;;;;;4806354;29;20039;-66
2022/09/26 10:49:51;;;;;;;8.93;4.40;;;12.10;99.90;;;;;;4806491;29;20051;-66
2022/09/26 10:52:42;;;;;;;5.70;4.10;;;12.00;99.90;;;;;;4775675;29;20499;-66
2022/09/26 10:55:17;;;;;;;6.07;4.22;;;12.00;99.90;;;;;;4757126;30;20437;-66
2022/09/26 11:01:47;;;;;;;7.60;4.43;;;11.90;99.90;;;;;;4788609;30;20137;-66
2022/09/26 11:07:51;;;;;;;8.48;4.03;;;11.90;99.90;;;;;;4786934;29;20063;-66
2022/09/26 11:11:10;;;;;;;6.88;4.55;;;11.90;99.90;;;;;;4795269;29;20533;-65
2022/09/26 11:18:34;;;;;;;5.40;3.80;;;11.90;99.90;;;;;;4805276;29;20042;-66
2022/09/26 11:21:50;;;;;;;5.63;4.78;;;11.90;99.90;;;;;;4775163;29;20480;-65
2022/09/26 11:25:07;;;;;;;5.20;4.53;;;11.90;99.90;;;;;;4788068;29;20067;-66
2022/09/26 11:27:42;;;;;;;9.38;4.45;;;11.80;99.90;;;;;;4787585;29;20480;-67
2022/09/26 11:30:36;;;;;;;4.78;4.30;;;11.80;99.90;;;;;;4789316;29;20381;-66
2022/09/26 11:37:25;;;;;;;7.50;4.65;;;11.80;99.90;;;;;;4798546;29;20046;-66
2022/09/26 11:40:10;;;;;;;5.40;4.55;;;11.80;99.90;;;;;;4789080;29;20477;-66
2022/09/26 11:43:00;;;;;;;5.22;4.65;;;11.80;99.90;;;;;;4806083;29;20047;-66
2022/09/26 11:45:30;;;;;;;5.68;4.63;;;11.80;99.90;;;;;;4804917;29;20126;-66
2022/09/26 11:48:36;;;;;;;4.82;4.32;;;11.80;99.90;;;;;;4804458;29;20429;-66
2022/09/26 11:51:39;;;;;;;6.20;4.88;;;11.80;99.90;;;;;;4729868;29;20056;-66
2022/09/26 11:54:19;;;;;;;7.85;4.55;;;11.80;99.90;;;;;;4784548;29;20054;-66
2022/09/26 11:57:35;;;;;;;4.75;4.28;;;11.80;99.90;;;;;;4782615;29;20505;-66
2022/09/26 12:00:23;;;;;;;6.32;4.15;;;11.80;99.90;;;;;;4786443;29;20054;-66
2022/09/26 12:02:56;;;;;;;7.05;4.30;;;11.80;99.90;;;;;;4784881;29;20119;-66
2022/09/26 12:05:47;;;;;;;5.88;4.45;;;11.80;99.90;;;;;;4787930;29;20063;-66
2022/09/26 12:08:38;;;;;;;7.47;4.68;;;11.80;99.90;;;;;;4805439;29;20047;-67
2022/09/26 12:11:09;;;;;;;8.02;4.80;;;11.90;99.90;;;;;;4805544;29;20130;-67
2022/09/26 12:13:56;;;;;;;6.07;4.30;;;11.90;99.90;;;;;;4804134;29;20050;-67
2022/09/26 12:16:36;;;;;;;5.07;4.57;;;11.90;99.90;;;;;;4805733;29;20361;-66
2022/09/26 12:19:12;;;;;;;5.18;4.40;;;11.90;99.90;;;;;;4801715;29;20062;-65
2022/09/26 12:25:15;;;;;;;5.78;4.30;;;11.90;99.90;;;;;;4783849;30;20051;-65
2022/09/26 12:28:02;;;;;;;4.80;4.40;;;11.90;99.90;;;;;;4795953;29;20048;-66
2022/09/26 12:30:49;;;;;;;5.50;4.80;;;11.90;99.90;;;;;;4802813;29;20059;-65
2022/09/26 12:33:39;;;;;;;5.55;5.05;;;11.90;99.90;;;;;;4809266;29;20058;-65
2022/09/26 12:36:47;;;;;;;5.40;4.90;;;11.90;99.90;;;;;;4793889;29;20047;-66
2022/09/26 12:39:35;;;;;;;5.00;4.43;;;11.90;99.90;;;;;;4812297;29;20489;-66
2022/09/26 12:42:28;;;;;;;4.13;3.53;;;11.90;99.90;;;;;;4816519;29;20054;-68
2022/09/26 12:45:08;;;;;;;;;;;12.00;99.90;;;;;;4811440;29;20192;-66
2022/09/26 12:48:03;;;;;;;5.18;3.53;;;12.00;99.90;;;;;;4797595;29;19964;-66
2022/09/26 12:50:55;;;;;;;5.22;3.22;;;11.90;99.90;;;;;;4805104;29;20057;-66
2022/09/26 12:53:23;;;;;;;3.35;3.05;;;11.90;99.90;;;;;;4790864;29;20400;-67
2022/09/26 12:56:09;;;;;;;3.10;2.80;;;12.00;99.90;;;;;;4807891;29;20043;-67
2022/09/26 12:59:06;;;;;;;3.83;3.30;;;12.00;99.90;;;;;;4808678;29;20049;-66
2022/09/26 13:01:48;;;;;;;3.67;2.97;;;12.00;99.90;;;;;;4806879;29;20472;-66
2022/09/26 13:04:35;;;;;;;4.47;2.83;;;12.00;99.90;;;;;;4807068;29;20043;-67
2022/09/26 13:07:08;;;;;;;2.90;2.63;;;12.10;99.90;;;;;;4807967;29;20461;-67
2022/09/26 13:09:51;;;;;;;3.95;2.60;;;12.00;99.90;;;;;;4792011;29;20055;-66
2022/09/26 13:12:46;;;;;;;3.25;2.95;;;12.10;99.90;;;;;;4808502;29;20409;-66
2022/09/26 13:15:45;;;;;;;2.88;2.67;;;12.10;99.90;;;;;;4806478;29;20054;-67
2022/09/26 13:18:23;;;;;;;3.05;2.67;;;12.20;99.90;;;;;;4805952;29;20117;-66
2022/09/26 13:20:54;;;;;;;3.35;2.80;;;12.20;99.90;;;;;;4808392;29;20043;-67
2022/09/26 13:23:52;;;;;;;4.22;2.72;;;12.20;99.90;;;;;;4812751;29;20051;-67
2022/09/26 13:26:32;;;;;;;2.60;2.40;;;12.20;99.90;;;;;;4826004;29;20099;-67
2022/09/26 13:29:07;;;;;;;2.40;2.20;;;12.20;99.90;;;;;;4809894;29;20070;-68
2022/09/26 13:32:24;;;;;;;2.60;2.40;;;12.20;99.90;;;;;;4793009;29;20074;-68
2022/09/26 13:38:33;;;;;;;2.55;2.35;;;12.30;99.90;;;;;;4802445;29;21115;-66
2022/09/26 13:49:18;;;;;;;2.58;2.10;;;12.20;99.90;;;;;;4806848;29;20514;-68
2022/09/26 13:52:07;;;;;;;2.90;2.10;;;12.30;99.90;;;;;;4791126;29;20058;-68
2022/09/26 13:54:51;;;;;;;2.40;2.20;;;12.30;99.90;;;;;;4804708;29;20396;-67
2022/09/26 13:57:35;;;;;;;2.00;1.88;;;12.40;99.90;;;;;;4812843;29;20066;-67
2022/09/26 14:00:28;;;;;;;2.30;2.10;;;12.40;99.90;;;;;;4790652;29;20527;-67
2022/09/26 14:03:12;;;;;;;3.83;3.35;;;12.40;99.90;;;;;;4807450;29;20133;-67
2022/09/26 14:05:40;;;;;;;6.28;5.28;;;12.40;99.90;;;;;;4789316;29;20046;-67
2022/09/26 14:11:26;;;;;;;5.85;4.78;;;12.40;99.90;;;;;;4806736;29;20038;-68
2022/09/26 14:14:17;;;;;;;4.70;4.30;;;12.40;99.90;;;;;;4790358;29;21424;-66
2022/09/26 14:16:44;;;;;;;4.57;3.85;;;12.50;99.90;;;;;;4800580;29;20492;-66
2022/09/26 14:19:10;;;;;;;4.00;3.60;;;12.60;99.90;;;;;;4807005;29;20125;-67
2022/09/26 14:21:59;;;;;;;2.70;2.50;;;12.70;99.90;;;;;;4806857;29;20449;-67
2022/09/26 14:24:36;;;;;;;2.40;2.20;;;12.80;99.90;;;;;;4802923;29;20108;-67
2022/09/26 14:27:23;;;;;;;2.65;2.45;;;12.80;99.90;;;;;;4805807;29;20051;-67
2022/09/26 14:29:58;;;;;;;1.95;1.85;;;12.80;99.90;;;;;;4803505;29;20063;-66
2022/09/26 14:32:38;;;;;;;2.58;2.38;;;12.80;99.90;;;;;;4805164;29;20125;-67
2022/09/26 14:35:27;;;;;;;2.13;1.92;;;12.70;99.90;;;;;;4802131;29;20047;-67
2022/09/26 14:38:03;;;;;;;2.38;2.17;;;12.90;99.90;;;;;;4789413;29;20130;-68
2022/09/26 14:40:35;;;;;;;2.85;2.30;;;12.90;99.90;;;;;;4789336;29;20122;-68
2022/09/26 14:43:18;;;;;;;2.13;1.93;;;12.90;99.90;;;;;;4797010;29;20481;-67
2022/09/26 14:46:06;;;;;;;2.50;2.30;;;13.00;99.90;;;;;;4808334;29;20404;-67
2022/09/26 14:48:37;;;;;;;2.30;2.10;;;12.90;99.90;;;;;;4789495;29;20050;-68
2022/09/26 14:51:10;;;;;;;2.70;2.50;;;12.90;99.90;;;;;;4804708;29;20523;-67
2022/09/26 14:53:47;;;;;;;2.40;2.20;;;12.90;99.90;;;;;;4803292;29;20054;-68
2022/09/26 14:56:15;;;;;;;3.25;2.45;;;12.90;99.90;;;;;;4805506;29;20062;-68
2022/09/26 14:58:41;;;;;;;2.58;2.38;;;12.90;99.90;;;;;;4802184;29;20121;-68
2022/09/26 15:01:16;;;;;;;3.50;2.88;;;12.90;99.90;;;;;;4771623;29;20540;-69
2022/09/26 15:03:48;;;;;;;2.80;2.60;;;12.90;99.90;;;;;;4805138;29;20071;-69
2022/09/26 15:06:14;;;;;;;4.03;3.20;;;12.90;99.90;;;;;;4789549;29;20134;-69
2022/09/26 15:08:40;;;;;;;3.13;2.83;;;12.80;99.90;;;;;;4807262;29;20065;-68